createdAt,value
2022-11-26T00:01:20.893Z,4.60
2022-11-26T00:03:49.632Z,5.70
2022-11-26T00:06:26.808Z,5.70
2022-11-26T00:08:55.916Z,4.93
2022-11-26T00:11:23.681Z,5.53
2022-11-26T00:13:51.465Z,4.87
2022-11-26T00:16:19.925Z,5.10
2022-11-26T00:18:47.761Z,5.10
2022-11-26T00:21:19.144Z,5.07
2022-11-26T00:23:47.032Z,5.20
2022-11-26T00:26:19.159Z,5.13
2022-11-26T00:28:52.005Z,5.10
2022-11-26T00:31:20.200Z,5.30
2022-11-26T00:33:48.114Z,5.87
2022-11-26T00:36:20.050Z,6.70
2022-11-26T00:38:50.741Z,5.20
2022-11-26T00:41:22.600Z,5.83
2022-11-26T00:43:50.699Z,5.50
2022-11-26T00:46:21.237Z,6.03
2022-11-26T00:48:49.234Z,6.17
2022-11-26T00:51:19.301Z,6.50
2022-11-26T00:53:48.922Z,6.53
2022-11-26T00:56:20.768Z,6.63
2022-11-26T00:58:50.364Z,6.00
2022-11-26T01:01:21.419Z,6.13
2022-11-26T01:03:49.484Z,6.20
2022-11-26T01:06:21.101Z,6.27
2022-11-26T01:08:49.089Z,6.97
2022-11-26T01:11:20.383Z,6.40
2022-11-26T01:13:49.823Z,6.40
2022-11-26T01:16:21.466Z,6.53
2022-11-26T01:18:50.790Z,7.40
2022-11-26T01:21:19.699Z,5.80
2022-11-26T01:23:47.746Z,6.50
2022-11-26T01:26:17.601Z,6.37
2022-11-26T01:28:47.344Z,7.23
2022-11-26T01:31:16.965Z,5.87
2022-11-26T01:33:45.451Z,6.60
2022-11-26T01:36:26.967Z,6.23
2022-11-26T01:38:55.849Z,6.30
2022-11-26T01:41:45.521Z,6.27
2022-11-26T01:44:20.051Z,6.60
2022-11-26T01:46:48.796Z,7.00
2022-11-26T01:49:19.401Z,6.87
2022-11-26T01:51:49.936Z,6.70
2022-11-26T01:54:18.753Z,6.93
2022-11-26T01:56:50.967Z,6.90
2022-11-26T01:59:24.597Z,6.60
2022-11-26T02:01:53.597Z,7.13
2022-11-26T02:04:25.749Z,7.10
2022-11-26T02:06:55.624Z,7.23
2022-11-26T02:09:25.958Z,7.17
2022-11-26T02:11:53.750Z,7.47
2022-11-26T02:14:26.425Z,6.70
2022-11-26T02:17:03.120Z,6.90
2022-11-26T02:20:15.468Z,7.53
2022-11-26T02:23:16.736Z,7.57
2022-11-26T02:26:08.865Z,7.30
2022-11-26T02:28:56.344Z,7.43
2022-11-26T02:31:34.571Z,6.40
2022-11-26T02:34:11.672Z,6.90
2022-11-26T02:36:52.412Z,6.70
2022-11-26T02:39:23.053Z,7.43
2022-11-26T02:41:52.676Z,7.00
2022-11-26T02:44:23.481Z,6.60
2022-11-26T02:46:58.869Z,6.37
2022-11-26T02:49:28.381Z,6.33
2022-11-26T02:52:00.737Z,6.77
2022-11-26T02:54:30.545Z,7.43
2022-11-26T02:57:00.689Z,6.10
2022-11-26T02:59:29.276Z,7.27
2022-11-26T03:02:01.867Z,6.80
2022-11-26T03:04:34.442Z,7.10
2022-11-26T03:07:06.132Z,6.63
2022-11-26T03:09:41.440Z,6.90
2022-11-26T03:12:09.791Z,8.20
2022-11-26T03:14:37.904Z,7.20
2022-11-26T03:17:07.278Z,6.97
2022-11-26T03:19:35.097Z,7.10
2022-11-26T03:22:03.072Z,7.17
2022-11-26T03:24:31.385Z,8.33
2022-11-26T03:26:59.546Z,7.23
2022-11-26T03:29:27.508Z,7.60
2022-11-26T03:31:55.429Z,7.47
2022-11-26T03:34:24.577Z,8.83
2022-11-26T03:36:52.612Z,6.87
2022-11-26T03:39:20.392Z,6.93
2022-11-26T03:41:48.147Z,6.90
2022-11-26T03:44:15.927Z,8.00
2022-11-26T03:46:43.846Z,7.60
2022-11-26T03:49:11.773Z,7.20
2022-11-26T03:51:40.865Z,6.87
2022-11-26T03:54:08.654Z,7.17
2022-11-26T03:56:36.384Z,7.30
2022-11-26T03:59:04.129Z,7.60
2022-11-26T04:01:31.902Z,7.53
2022-11-26T04:03:59.910Z,7.13
2022-11-26T04:06:27.645Z,7.67
2022-11-26T04:08:56.718Z,7.73
2022-11-26T04:11:24.513Z,6.47
2022-11-26T04:13:52.298Z,7.70
2022-11-26T04:16:20.637Z,7.50
2022-11-26T04:18:48.461Z,6.77
2022-11-26T04:21:16.251Z,8.33
2022-11-26T04:23:44.069Z,7.00
2022-11-26T04:26:13.187Z,7.40
2022-11-26T04:28:41.135Z,7.93
2022-11-26T04:31:08.870Z,7.90
2022-11-26T04:33:36.690Z,8.17
2022-11-26T04:36:04.824Z,7.10
2022-11-26T04:38:32.622Z,7.80
2022-11-26T04:41:00.416Z,7.83
2022-11-26T04:43:29.605Z,7.50
2022-11-26T04:45:57.419Z,7.30
2022-11-26T04:48:25.301Z,7.80
2022-11-26T04:50:53.009Z,7.63
2022-11-26T04:53:22.089Z,8.03
2022-11-26T04:55:50.461Z,6.83
2022-11-26T04:58:18.612Z,7.37
2022-11-26T05:00:51.068Z,8.53
2022-11-26T05:03:19.234Z,7.03
2022-11-26T05:05:47.706Z,7.20
2022-11-26T05:08:15.771Z,7.77
2022-11-26T05:10:43.578Z,7.93
2022-11-26T05:13:11.616Z,7.87
2022-11-26T05:15:39.342Z,8.30
2022-11-26T05:18:08.604Z,7.80
2022-11-26T05:20:36.299Z,6.90
2022-11-26T05:23:04.099Z,6.80
2022-11-26T05:25:31.804Z,5.77
2022-11-26T05:27:59.598Z,6.30
2022-11-26T05:30:27.347Z,6.23
2022-11-26T05:32:55.142Z,6.53
2022-11-26T05:35:24.208Z,6.73
2022-11-26T05:37:51.933Z,6.00
2022-11-26T05:40:21.090Z,6.13
2022-11-26T05:42:48.864Z,6.17
2022-11-26T05:45:16.844Z,5.40
2022-11-26T05:47:44.586Z,5.83
2022-11-26T05:50:13.064Z,5.87
2022-11-26T05:52:42.381Z,6.20
2022-11-26T05:55:11.494Z,6.13
2022-11-26T05:57:39.356Z,6.63
2022-11-26T06:00:08.655Z,6.60
2022-11-26T06:02:39.614Z,5.57
2022-11-26T06:05:08.390Z,6.40
2022-11-26T06:07:39.332Z,6.23
2022-11-26T06:10:11.889Z,6.67
2022-11-26T06:12:39.675Z,6.60
2022-11-26T06:15:11.096Z,7.33
2022-11-26T06:17:41.980Z,8.20
2022-11-26T06:20:10.544Z,7.37
2022-11-26T06:22:39.134Z,7.73
2022-11-26T06:25:09.109Z,7.30
2022-11-26T06:27:38.780Z,7.77
2022-11-26T06:30:08.890Z,7.47
2022-11-26T06:32:36.697Z,6.73
2022-11-26T06:35:04.993Z,7.53
2022-11-26T06:37:33.195Z,6.00
2022-11-26T06:40:01.545Z,6.50
2022-11-26T06:42:29.602Z,5.90
2022-11-26T06:45:00.157Z,5.33
2022-11-26T06:47:28.055Z,5.60
2022-11-26T06:49:55.778Z,5.97
2022-11-26T06:52:26.512Z,5.63
2022-11-26T06:54:54.260Z,5.23
2022-11-26T06:57:21.995Z,5.57
2022-11-26T06:59:49.707Z,5.70
2022-11-26T07:02:18.836Z,4.90
2022-11-26T07:04:48.919Z,5.30
2022-11-26T07:07:16.826Z,6.27
2022-11-26T07:09:44.513Z,5.30
2022-11-26T07:12:12.337Z,5.80
2022-11-26T07:14:40.889Z,5.63
2022-11-26T07:17:08.897Z,5.13
2022-11-26T07:19:38.046Z,4.97
2022-11-26T07:22:05.770Z,5.00
2022-11-26T07:24:33.485Z,5.60
2022-11-26T07:27:01.194Z,5.47
2022-11-26T07:29:29.034Z,6.50
2022-11-26T07:31:56.881Z,6.23
2022-11-26T07:34:24.675Z,5.43
2022-11-26T07:36:57.832Z,5.23
2022-11-26T07:39:26.131Z,5.63
2022-11-26T07:41:53.834Z,6.00
2022-11-26T07:44:21.675Z,5.73
2022-11-26T07:46:49.495Z,5.30
2022-11-26T07:49:17.949Z,5.73
2022-11-26T07:51:45.890Z,5.50
2022-11-26T07:54:15.014Z,4.90
2022-11-26T07:56:42.802Z,5.37
2022-11-26T07:59:11.862Z,5.53
2022-11-26T08:01:39.686Z,5.40
2022-11-26T08:04:08.329Z,5.40
2022-11-26T08:06:36.652Z,5.47
2022-11-26T08:09:05.472Z,6.43
2022-11-26T08:11:34.845Z,6.17
2022-11-26T08:14:04.852Z,5.97
2022-11-26T08:16:33.948Z,5.40
2022-11-26T08:19:04.217Z,5.67
2022-11-26T08:21:32.105Z,6.43
2022-11-26T08:24:00.289Z,6.30
2022-11-26T08:26:36.165Z,5.70
2022-11-26T08:29:08.183Z,5.53
2022-11-26T08:31:44.886Z,4.80
2022-11-26T08:34:15.136Z,5.30
2022-11-26T08:36:43.025Z,5.73
2022-11-26T08:39:17.344Z,5.10
2022-11-26T08:41:51.744Z,5.73
2022-11-26T08:44:22.182Z,5.20
2022-11-26T08:46:53.053Z,5.10
2022-11-26T08:49:20.745Z,4.73
2022-11-26T08:51:48.554Z,5.60
2022-11-26T08:54:16.258Z,6.00
2022-11-26T08:56:44.117Z,5.37
2022-11-26T08:59:11.807Z,6.20
2022-11-26T09:01:41.187Z,5.80
2022-11-26T09:04:08.982Z,5.67
2022-11-26T09:06:37.759Z,5.50
2022-11-26T09:09:17.213Z,5.53
2022-11-26T09:11:48.160Z,5.20
2022-11-26T09:14:17.445Z,5.23
2022-11-26T09:16:46.635Z,5.60
2022-11-26T09:19:15.751Z,5.53
2022-11-26T09:21:43.973Z,6.00
2022-11-26T09:24:12.236Z,6.07
2022-11-26T09:26:40.082Z,5.67
2022-11-26T09:29:07.926Z,5.17
2022-11-26T09:31:35.654Z,5.30
2022-11-26T09:34:04.820Z,6.50
2022-11-26T09:36:32.605Z,5.80
2022-11-26T09:39:00.917Z,5.50
2022-11-26T09:41:39.231Z,4.93
2022-11-26T09:44:23.205Z,5.20
2022-11-26T09:47:12.051Z,6.50
2022-11-26T09:49:49.013Z,5.07
2022-11-26T09:52:19.644Z,6.20
2022-11-26T09:54:50.877Z,5.70
2022-11-26T09:57:24.617Z,6.07
2022-11-26T09:59:54.950Z,5.43
2022-11-26T10:02:25.295Z,5.60
2022-11-26T10:04:54.675Z,5.50
2022-11-26T10:07:38.986Z,6.30
2022-11-26T10:10:12.893Z,5.53
2022-11-26T10:13:18.032Z,5.70
2022-11-26T10:15:54.200Z,5.77
2022-11-26T10:18:32.132Z,5.77
2022-11-26T10:21:11.536Z,5.13
2022-11-26T10:23:45.487Z,6.30
2022-11-26T10:26:17.102Z,6.03
2022-11-26T10:28:47.573Z,5.77
2022-11-26T10:31:21.683Z,6.00
2022-11-26T10:33:58.238Z,6.30
2022-11-26T10:36:34.719Z,5.63
2022-11-26T10:39:02.731Z,6.30
2022-11-26T10:41:35.175Z,6.67
2022-11-26T10:44:36.889Z,6.07
2022-11-26T10:47:24.093Z,6.10
2022-11-26T10:49:53.409Z,5.23
2022-11-26T10:52:25.818Z,5.20
2022-11-26T10:55:21.937Z,5.27
2022-11-26T10:57:53.103Z,5.10
2022-11-26T11:00:33.826Z,5.37
2022-11-26T11:03:03.045Z,5.10
2022-11-26T11:05:31.354Z,4.53
2022-11-26T11:08:00.554Z,5.30
2022-11-26T11:10:28.406Z,5.47
2022-11-26T11:13:04.917Z,5.87
2022-11-26T11:15:35.506Z,6.40
2022-11-26T11:18:06.291Z,5.47
2022-11-26T11:20:37.002Z,5.23
2022-11-26T11:23:18.312Z,7.33
2022-11-26T11:25:48.608Z,6.47
2022-11-26T11:28:20.623Z,5.47
2022-11-26T11:30:58.601Z,4.87
2022-11-26T11:33:28.116Z,6.13
2022-11-26T11:36:16.340Z,6.23
2022-11-26T11:38:50.336Z,5.40
2022-11-26T11:41:25.517Z,5.60
2022-11-26T11:43:59.724Z,6.20
2022-11-26T11:46:48.031Z,5.50
2022-11-26T11:49:26.758Z,5.03
2022-11-26T11:52:09.637Z,5.23
2022-11-26T11:54:48.879Z,5.33
2022-11-26T11:57:25.598Z,5.33
2022-11-26T12:00:13.221Z,6.07
2022-11-26T12:02:59.587Z,5.47
2022-11-26T12:05:43.477Z,5.27
2022-11-26T12:08:28.784Z,4.97
2022-11-26T12:11:13.224Z,4.63
2022-11-26T12:13:47.799Z,4.63
2022-11-26T12:16:18.246Z,5.13
2022-11-26T12:18:49.872Z,5.50
2022-11-26T12:21:26.405Z,5.53
2022-11-26T12:23:59.002Z,4.77
2022-11-26T12:26:31.946Z,4.33
2022-11-26T12:29:03.563Z,4.57
2022-11-26T12:31:37.508Z,4.30
2022-11-26T12:34:12.548Z,4.57
2022-11-26T12:36:46.444Z,4.40
2022-11-26T12:39:20.850Z,4.33
2022-11-26T12:41:56.203Z,5.40
2022-11-26T12:44:31.441Z,5.20
2022-11-26T12:47:09.267Z,4.93
2022-11-26T12:49:48.217Z,4.13
2022-11-26T12:52:30.442Z,4.80
2022-11-26T12:55:04.777Z,4.30
2022-11-26T12:57:39.653Z,3.73
2022-11-26T13:00:12.882Z,3.60
2022-11-26T13:02:43.448Z,4.17
2022-11-26T13:05:18.087Z,4.20
2022-11-26T13:08:02.468Z,4.40
2022-11-26T13:10:40.517Z,4.10
2022-11-26T13:13:21.022Z,3.83
2022-11-26T13:16:01.474Z,4.13
2022-11-26T13:18:32.665Z,3.93
2022-11-26T13:21:15.682Z,4.33
2022-11-26T13:24:00.949Z,4.53
2022-11-26T13:26:44.234Z,3.77
2022-11-26T13:29:35.624Z,4.37
2022-11-26T13:32:26.925Z,3.80
2022-11-26T13:35:10.020Z,3.77
2022-11-26T13:37:50.616Z,3.13
2022-11-26T13:40:54.772Z,3.27
2022-11-26T13:44:01.849Z,3.27
2022-11-26T13:46:34.334Z,3.83
2022-11-26T13:49:08.585Z,3.73
2022-11-26T13:51:43.652Z,3.30
2022-11-26T13:54:15.283Z,3.60
2022-11-26T13:56:45.565Z,3.60
2022-11-26T13:59:22.720Z,4.07
2022-11-26T14:01:54.884Z,3.90
2022-11-26T14:04:53.592Z,3.63
2022-11-26T14:07:21.844Z,3.83
2022-11-26T14:09:52.410Z,4.50
2022-11-26T14:12:21.861Z,3.57
2022-11-26T14:14:50.769Z,3.77
2022-11-26T14:17:22.641Z,4.80
2022-11-26T14:20:04.785Z,4.23
2022-11-26T14:22:34.438Z,4.53
2022-11-26T14:25:04.556Z,3.97
2022-11-26T14:27:34.421Z,3.50
2022-11-26T14:30:21.315Z,3.90
2022-11-26T14:33:04.021Z,4.57
2022-11-26T14:35:34.935Z,2.90
2022-11-26T14:38:05.446Z,4.00
2022-11-26T14:40:34.562Z,3.40
2022-11-26T14:43:23.900Z,3.90
2022-11-26T14:46:04.380Z,3.80
2022-11-26T14:48:36.564Z,3.83
2022-11-26T14:51:09.177Z,3.57
2022-11-26T14:53:41.553Z,3.57
2022-11-26T14:56:11.183Z,4.03
2022-11-26T14:58:43.104Z,3.53
2022-11-26T15:01:20.676Z,3.73
2022-11-26T15:03:57.988Z,3.70
2022-11-26T15:06:28.175Z,4.30
2022-11-26T15:09:15.055Z,4.00
2022-11-26T15:11:48.774Z,4.67
2022-11-26T15:14:21.689Z,4.07
2022-11-26T15:16:56.356Z,4.17
2022-11-26T15:19:26.813Z,3.87
2022-11-26T15:21:54.837Z,3.97
2022-11-26T15:24:22.864Z,4.93
2022-11-26T15:26:50.755Z,3.80
2022-11-26T15:29:30.923Z,4.23
2022-11-26T15:31:59.459Z,4.40
2022-11-26T15:34:32.264Z,4.03
2022-11-26T15:37:00.324Z,4.60
2022-11-26T15:39:30.657Z,3.87
2022-11-26T15:42:05.873Z,4.57
2022-11-26T15:44:42.357Z,4.00
2022-11-26T15:47:23.208Z,4.37
2022-11-26T15:49:56.352Z,4.30
2022-11-26T15:52:27.243Z,3.80
2022-11-26T15:55:16.894Z,4.17
2022-11-26T15:57:45.217Z,4.70
2022-11-26T16:00:22.731Z,4.23
2022-11-26T16:02:52.079Z,5.40
2022-11-26T16:05:30.549Z,4.90
2022-11-26T16:07:59.823Z,4.60
2022-11-26T16:10:31.415Z,5.60
2022-11-26T16:13:19.499Z,5.30
2022-11-26T16:15:55.307Z,4.80
2022-11-26T16:18:26.404Z,4.97
2022-11-26T16:21:05.552Z,4.90
2022-11-26T16:23:33.784Z,3.83
2022-11-26T16:26:17.486Z,4.43
2022-11-26T16:28:46.219Z,4.47
2022-11-26T16:31:14.430Z,4.50
2022-11-26T16:33:43.044Z,4.60
2022-11-26T16:36:22.678Z,4.10
2022-11-26T16:38:51.397Z,4.57
2022-11-26T16:41:21.024Z,4.40
2022-11-26T16:43:49.386Z,5.00
2022-11-26T16:46:19.353Z,4.37
2022-11-26T16:48:48.392Z,5.40
2022-11-26T16:51:18.141Z,5.27
2022-11-26T16:53:45.904Z,4.67
2022-11-26T16:56:21.036Z,4.23
2022-11-26T16:58:49.311Z,4.37
2022-11-26T17:01:17.087Z,4.30
2022-11-26T17:03:44.971Z,4.20
2022-11-26T17:06:16.536Z,4.70
2022-11-26T17:08:49.685Z,3.80
2022-11-26T17:11:18.688Z,4.00
2022-11-26T17:13:46.517Z,4.63
2022-11-26T17:16:16.640Z,4.33
2022-11-26T17:18:44.572Z,4.83
2022-11-26T17:21:12.379Z,4.70
2022-11-26T17:23:40.153Z,10.43
2022-11-26T17:26:17.746Z,7.13
2022-11-26T17:28:45.509Z,5.23
2022-11-26T17:31:13.426Z,5.00
2022-11-26T17:33:41.426Z,5.57
2022-11-26T17:36:17.423Z,4.70
2022-11-26T17:38:46.180Z,4.00
2022-11-26T17:41:16.194Z,4.80
2022-11-26T17:43:44.344Z,4.03
2022-11-26T17:46:18.239Z,4.33
2022-11-26T17:48:46.637Z,4.30
2022-11-26T17:51:15.268Z,4.20
2022-11-26T17:53:44.978Z,4.10
2022-11-26T17:56:22.500Z,4.20
2022-11-26T17:58:50.959Z,4.57
2022-11-26T18:01:18.933Z,4.67
2022-11-26T18:03:47.265Z,5.20
2022-11-26T18:06:17.077Z,4.60
2022-11-26T18:08:45.889Z,4.90
2022-11-26T18:11:15.004Z,5.13
2022-11-26T18:13:45.261Z,4.93
2022-11-26T18:16:13.273Z,4.90
2022-11-26T18:18:41.051Z,5.03
2022-11-26T18:21:08.867Z,5.10
2022-11-26T18:23:36.731Z,4.90
2022-11-26T18:26:04.646Z,5.00
2022-11-26T18:28:32.531Z,5.40
2022-11-26T18:31:01.883Z,4.70
2022-11-26T18:33:29.832Z,4.73
2022-11-26T18:35:57.623Z,5.33
2022-11-26T18:38:29.005Z,5.00
2022-11-26T18:41:02.211Z,5.17
2022-11-26T18:43:30.239Z,5.40
2022-11-26T18:45:58.235Z,5.47
2022-11-26T18:48:27.378Z,4.50
2022-11-26T18:50:58.965Z,4.70
2022-11-26T18:53:27.938Z,4.80
2022-11-26T18:55:56.558Z,4.77
2022-11-26T18:58:25.087Z,5.33
2022-11-26T19:00:58.452Z,4.37
2022-11-26T19:03:28.462Z,5.37
2022-11-26T19:05:56.688Z,4.70
2022-11-26T19:08:24.633Z,5.07
2022-11-26T19:10:52.514Z,4.93
2022-11-26T19:13:20.237Z,4.80
2022-11-26T19:15:48.660Z,5.90
2022-11-26T19:18:16.828Z,4.90
2022-11-26T19:20:50.158Z,4.47
2022-11-26T19:23:24.133Z,4.33
2022-11-26T19:25:51.987Z,4.77
2022-11-26T19:28:19.884Z,4.70
2022-11-26T19:30:58.823Z,5.03
2022-11-26T19:33:26.741Z,4.90
2022-11-26T19:35:56.097Z,4.90
2022-11-26T19:38:23.949Z,5.30
2022-11-26T19:40:56.770Z,5.33
2022-11-26T19:43:25.342Z,5.20
2022-11-26T19:45:53.494Z,5.40
2022-11-26T19:48:23.972Z,4.87
2022-11-26T19:50:56.474Z,5.60
2022-11-26T19:53:24.967Z,5.23
2022-11-26T19:55:57.964Z,5.43
2022-11-26T19:58:26.006Z,5.40
2022-11-26T20:00:54.696Z,5.90
2022-11-26T20:03:23.302Z,6.03
2022-11-26T20:05:51.693Z,6.00
2022-11-26T20:08:21.539Z,4.73
2022-11-26T20:10:50.136Z,5.27
2022-11-26T20:13:18.310Z,6.03
2022-11-26T20:15:47.392Z,4.90
2022-11-26T20:18:16.248Z,5.00
2022-11-26T20:20:44.043Z,4.57
2022-11-26T20:23:12.076Z,4.73
2022-11-26T20:25:41.177Z,4.83
2022-11-26T20:28:14.491Z,4.30
2022-11-26T20:30:42.383Z,4.43
2022-11-26T20:33:10.274Z,4.70
2022-11-26T20:35:40.614Z,4.70
2022-11-26T20:38:08.526Z,5.40
2022-11-26T20:40:36.448Z,4.73
2022-11-26T20:43:05.615Z,4.70
2022-11-26T20:45:33.360Z,4.57
2022-11-26T20:48:01.231Z,5.23
2022-11-26T20:50:28.944Z,5.10
2022-11-26T20:52:56.773Z,4.80
2022-11-26T20:55:25.152Z,4.33
2022-11-26T20:57:53.349Z,5.57
2022-11-26T21:00:27.381Z,5.30
2022-11-26T21:02:55.675Z,5.10
2022-11-26T21:05:28.814Z,4.57
2022-11-26T21:07:56.771Z,4.93
2022-11-26T21:10:26.344Z,5.17
2022-11-26T21:12:54.098Z,4.63
2022-11-26T21:15:23.596Z,5.03
2022-11-26T21:17:51.737Z,4.90
2022-11-26T21:20:19.868Z,5.10
2022-11-26T21:22:47.616Z,4.57
2022-11-26T21:25:15.496Z,4.77
2022-11-26T21:27:43.333Z,5.07
2022-11-26T21:30:12.205Z,4.87
2022-11-26T21:32:41.288Z,5.60
2022-11-26T21:35:10.339Z,4.90
2022-11-26T21:37:38.150Z,4.57
2022-11-26T21:40:06.501Z,5.00
2022-11-26T21:42:36.613Z,4.87
2022-11-26T21:45:05.194Z,5.33
2022-11-26T21:47:32.877Z,4.87
2022-11-26T21:50:04.605Z,5.17
2022-11-26T21:52:32.452Z,5.23
2022-11-26T21:55:03.608Z,4.97
2022-11-26T21:57:31.930Z,5.10
2022-11-26T21:59:59.706Z,4.43
2022-11-26T22:02:27.625Z,4.67
2022-11-26T22:04:55.409Z,4.77
2022-11-26T22:07:24.820Z,4.60
2022-11-26T22:09:52.653Z,5.57
2022-11-26T22:12:20.366Z,5.03
2022-11-26T22:14:48.135Z,4.37
2022-11-26T22:17:17.281Z,4.90
2022-11-26T22:19:45.089Z,4.47
2022-11-26T22:22:12.925Z,4.43
2022-11-26T22:24:42.250Z,4.73
2022-11-26T22:27:09.995Z,4.03
2022-11-26T22:29:38.238Z,4.33
2022-11-26T22:32:07.162Z,4.97
2022-11-26T22:34:34.903Z,4.93
2022-11-26T22:37:02.726Z,4.50
2022-11-26T22:39:31.766Z,4.20
2022-11-26T22:42:01.781Z,4.37
2022-11-26T22:44:29.573Z,4.90
2022-11-26T22:46:57.311Z,5.17
2022-11-26T22:49:25.253Z,4.57
2022-11-26T22:51:53.044Z,4.43
2022-11-26T22:54:21.311Z,4.20
2022-11-26T22:56:48.993Z,5.50
2022-11-26T22:59:18.079Z,4.53
2022-11-26T23:01:45.936Z,4.07
2022-11-26T23:04:13.916Z,4.60
2022-11-26T23:06:42.040Z,4.60
2022-11-26T23:09:10.585Z,4.70
2022-11-26T23:11:41.018Z,3.73
2022-11-26T23:14:09.711Z,4.17
2022-11-26T23:16:40.954Z,5.30
2022-11-26T23:19:09.409Z,4.60
2022-11-26T23:21:40.683Z,4.87
2022-11-26T23:24:09.283Z,5.43
2022-11-26T23:26:39.450Z,5.00
2022-11-26T23:29:08.471Z,4.80
2022-11-26T23:31:39.520Z,4.53
2022-11-26T23:34:07.785Z,4.60
2022-11-26T23:36:36.652Z,4.03
2022-11-26T23:39:06.855Z,4.20
2022-11-26T23:41:35.044Z,3.70
2022-11-26T23:44:03.481Z,3.70
2022-11-26T23:46:35.309Z,3.83
2022-11-26T23:49:05.173Z,3.77
2022-11-26T23:51:33.706Z,4.73
2022-11-26T23:54:01.442Z,4.13
2022-11-26T23:56:31.743Z,4.13
2022-11-26T23:59:01.551Z,3.30
